sensor_id;sensor_type;location;lat;lon;timestamp;P1;durP1;ratioP1;P2;durP2;ratioP2
76355;SDS011;65184;50.952;4.366;2022-12-10T00:01:35;35.70;;;13.82;;
76355;SDS011;65184;50.952;4.366;2022-12-10T00:04:07;35.63;;;14.43;;
76355;SDS011;65184;50.952;4.366;2022-12-10T00:06:33;39.35;;;13.65;;
76355;SDS011;65184;50.952;4.366;2022-12-10T00:09:00;34.70;;;14.35;;
76355;SDS011;65184;50.952;4.366;2022-12-10T00:13:57;37.97;;;15.10;;
76355;SDS011;65184;50.952;4.366;2022-12-10T00:16:29;37.13;;;13.85;;
76355;SDS011;65184;50.952;4.366;2022-12-10T00:19:01;38.53;;;14.73;;
76355;SDS011;65184;50.952;4.366;2022-12-10T00:21:31;31.13;;;12.80;;
76355;SDS011;65184;50.952;4.366;2022-12-10T00:23:59;45.00;;;16.45;;
76355;SDS011;65184;50.952;4.366;2022-12-10T00:26:29;45.88;;;15.45;;
76355;SDS011;65184;50.952;4.366;2022-12-10T00:28:56;45.20;;;16.50;;
76355;SDS011;65184;50.952;4.366;2022-12-10T00:31:25;43.50;;;15.02;;
76355;SDS011;65184;50.952;4.366;2022-12-10T00:33:54;37.28;;;14.18;;
76355;SDS011;65184;50.952;4.366;2022-12-10T00:36:28;40.13;;;15.13;;
76355;SDS011;65184;50.952;4.366;2022-12-10T00:38:56;43.47;;;15.82;;
76355;SDS011;65184;50.952;4.366;2022-12-10T00:41:23;45.90;;;16.08;;
76355;SDS011;65184;50.952;4.366;2022-12-10T00:43:54;49.45;;;17.33;;
76355;SDS011;65184;50.952;4.366;2022-12-10T00:46:20;45.35;;;16.48;;
76355;SDS011;65184;50.952;4.366;2022-12-10T00:48:47;39.83;;;16.67;;
76355;SDS011;65184;50.952;4.366;2022-12-10T00:51:20;37.75;;;14.50;;
76355;SDS011;65184;50.952;4.366;2022-12-10T00:53:54;39.78;;;16.27;;
76355;SDS011;65184;50.952;4.366;2022-12-10T00:56:26;43.35;;;14.88;;
76355;SDS011;65184;50.952;4.366;2022-12-10T00:58:58;28.70;;;12.55;;
76355;SDS011;65184;50.952;4.366;2022-12-10T01:01:38;37.88;;;15.10;;
76355;SDS011;65184;50.952;4.366;2022-12-10T01:04:07;46.00;;;13.13;;
76355;SDS011;65184;50.952;4.366;2022-12-10T01:06:44;36.78;;;13.75;;
76355;SDS011;65184;50.952;4.366;2022-12-10T01:09:18;43.17;;;15.35;;
76355;SDS011;65184;50.952;4.366;2022-12-10T01:11:55;43.65;;;14.75;;
76355;SDS011;65184;50.952;4.366;2022-12-10T01:14:23;48.28;;;18.40;;
76355;SDS011;65184;50.952;4.366;2022-12-10T01:16:53;50.00;;;17.08;;
76355;SDS011;65184;50.952;4.366;2022-12-10T01:19:23;47.80;;;16.80;;
76355;SDS011;65184;50.952;4.366;2022-12-10T01:21:55;44.78;;;15.30;;
76355;SDS011;65184;50.952;4.366;2022-12-10T01:24:24;36.15;;;14.77;;
76355;SDS011;65184;50.952;4.366;2022-12-10T01:26:52;42.17;;;17.13;;
76355;SDS011;65184;50.952;4.366;2022-12-10T01:29:24;44.63;;;15.15;;
76355;SDS011;65184;50.952;4.366;2022-12-10T01:31:53;43.10;;;16.23;;
76355;SDS011;65184;50.952;4.366;2022-12-10T01:34:20;46.53;;;15.68;;
76355;SDS011;65184;50.952;4.366;2022-12-10T01:36:55;47.30;;;16.00;;
76355;SDS011;65184;50.952;4.366;2022-12-10T01:39:28;38.22;;;15.45;;
76355;SDS011;65184;50.952;4.366;2022-12-10T01:41:54;48.28;;;16.45;;
76355;SDS011;65184;50.952;4.366;2022-12-10T01:46:58;39.83;;;14.57;;
76355;SDS011;65184;50.952;4.366;2022-12-10T01:49:26;40.33;;;14.82;;
76355;SDS011;65184;50.952;4.366;2022-12-10T01:51:57;37.70;;;13.27;;
76355;SDS011;65184;50.952;4.366;2022-12-10T01:54:27;44.53;;;17.42;;
76355;SDS011;65184;50.952;4.366;2022-12-10T01:59:26;45.47;;;16.52;;
76355;SDS011;65184;50.952;4.366;2022-12-10T02:13:24;44.65;;;14.23;;
76355;SDS011;65184;50.952;4.366;2022-12-10T02:16:06;46.75;;;16.58;;
76355;SDS011;65184;50.952;4.366;2022-12-10T02:18:48;38.05;;;13.55;;
76355;SDS011;65184;50.952;4.366;2022-12-10T02:21:18;40.58;;;13.55;;
76355;SDS011;65184;50.952;4.366;2022-12-10T02:23:51;49.20;;;17.38;;
76355;SDS011;65184;50.952;4.366;2022-12-10T02:29:13;43.38;;;17.48;;
76355;SDS011;65184;50.952;4.366;2022-12-10T02:34:27;33.80;;;13.15;;
76355;SDS011;65184;50.952;4.366;2022-12-10T02:36:55;50.55;;;16.55;;
76355;SDS011;65184;50.952;4.366;2022-12-10T02:39:26;38.70;;;15.93;;
76355;SDS011;65184;50.952;4.366;2022-12-10T02:42:01;47.72;;;17.75;;
76355;SDS011;65184;50.952;4.366;2022-12-10T02:44:28;52.28;;;16.50;;
76355;SDS011;65184;50.952;4.366;2022-12-10T02:49:33;38.60;;;14.77;;
76355;SDS011;65184;50.952;4.366;2022-12-10T02:52:06;43.72;;;16.33;;
76355;SDS011;65184;50.952;4.366;2022-12-10T02:54:42;48.05;;;16.40;;
76355;SDS011;65184;50.952;4.366;2022-12-10T03:00:05;49.30;;;17.40;;
76355;SDS011;65184;50.952;4.366;2022-12-10T03:05:22;36.50;;;15.90;;
76355;SDS011;65184;50.952;4.366;2022-12-10T03:13:32;44.90;;;15.68;;
76355;SDS011;65184;50.952;4.366;2022-12-10T03:16:05;49.75;;;18.42;;
76355;SDS011;65184;50.952;4.366;2022-12-10T03:18:31;47.40;;;17.25;;
76355;SDS011;65184;50.952;4.366;2022-12-10T03:21:01;47.97;;;18.42;;
76355;SDS011;65184;50.952;4.366;2022-12-10T03:23:29;49.65;;;17.02;;
76355;SDS011;65184;50.952;4.366;2022-12-10T03:25:59;58.13;;;17.73;;
76355;SDS011;65184;50.952;4.366;2022-12-10T03:28:25;52.58;;;17.90;;
76355;SDS011;65184;50.952;4.366;2022-12-10T03:30:55;50.97;;;17.63;;
76355;SDS011;65184;50.952;4.366;2022-12-10T03:33:24;59.53;;;17.40;;
76355;SDS011;65184;50.952;4.366;2022-12-10T03:38:48;58.97;;;20.02;;
76355;SDS011;65184;50.952;4.366;2022-12-10T03:41:14;41.92;;;15.75;;
76355;SDS011;65184;50.952;4.366;2022-12-10T03:43:52;55.70;;;19.08;;
76355;SDS011;65184;50.952;4.366;2022-12-10T03:46:21;55.50;;;19.33;;
76355;SDS011;65184;50.952;4.366;2022-12-10T03:48:48;50.25;;;15.90;;
76355;SDS011;65184;50.952;4.366;2022-12-10T03:51:26;58.97;;;19.52;;
76355;SDS011;65184;50.952;4.366;2022-12-10T03:56:30;50.42;;;16.30;;
76355;SDS011;65184;50.952;4.366;2022-12-10T03:59:02;54.22;;;18.48;;
76355;SDS011;65184;50.952;4.366;2022-12-10T04:01:34;59.75;;;19.00;;
76355;SDS011;65184;50.952;4.366;2022-12-10T04:04:01;58.95;;;18.90;;
76355;SDS011;65184;50.952;4.366;2022-12-10T04:06:41;57.70;;;18.75;;
76355;SDS011;65184;50.952;4.366;2022-12-10T04:09:26;55.78;;;18.90;;
76355;SDS011;65184;50.952;4.366;2022-12-10T04:11:57;54.03;;;17.50;;
76355;SDS011;65184;50.952;4.366;2022-12-10T04:14:27;63.22;;;21.30;;
76355;SDS011;65184;50.952;4.366;2022-12-10T04:17:15;51.58;;;18.60;;
76355;SDS011;65184;50.952;4.366;2022-12-10T04:22:21;62.58;;;19.80;;
76355;SDS011;65184;50.952;4.366;2022-12-10T04:25:07;56.63;;;19.13;;
76355;SDS011;65184;50.952;4.366;2022-12-10T04:27:51;53.42;;;16.48;;
76355;SDS011;65184;50.952;4.366;2022-12-10T04:30:19;52.40;;;19.20;;
76355;SDS011;65184;50.952;4.366;2022-12-10T04:32:49;58.55;;;20.27;;
76355;SDS011;65184;50.952;4.366;2022-12-10T04:35:15;52.03;;;18.20;;
76355;SDS011;65184;50.952;4.366;2022-12-10T04:38:03;77.32;;;20.27;;
76355;SDS011;65184;50.952;4.366;2022-12-10T04:40:47;60.85;;;19.08;;
76355;SDS011;65184;50.952;4.366;2022-12-10T04:43:15;49.13;;;18.15;;
76355;SDS011;65184;50.952;4.366;2022-12-10T04:46:04;49.70;;;15.57;;
76355;SDS011;65184;50.952;4.366;2022-12-10T04:48:43;51.60;;;18.52;;
76355;SDS011;65184;50.952;4.366;2022-12-10T04:53:39;59.20;;;16.50;;
76355;SDS011;65184;50.952;4.366;2022-12-10T04:56:05;64.68;;;19.50;;
76355;SDS011;65184;50.952;4.366;2022-12-10T04:58:32;50.35;;;16.75;;
76355;SDS011;65184;50.952;4.366;2022-12-10T05:01:03;56.67;;;16.85;;
76355;SDS011;65184;50.952;4.366;2022-12-10T05:03:57;64.20;;;20.33;;
76355;SDS011;65184;50.952;4.366;2022-12-10T05:06:24;64.13;;;18.27;;
76355;SDS011;65184;50.952;4.366;2022-12-10T05:08:56;49.70;;;15.18;;
76355;SDS011;65184;50.952;4.366;2022-12-10T05:11:36;65.07;;;16.05;;
76355;SDS011;65184;50.952;4.366;2022-12-10T05:14:05;60.00;;;17.75;;
76355;SDS011;65184;50.952;4.366;2022-12-10T05:16:36;61.70;;;18.13;;
76355;SDS011;65184;50.952;4.366;2022-12-10T05:19:12;67.22;;;16.92;;
76355;SDS011;65184;50.952;4.366;2022-12-10T05:24:43;56.88;;;18.20;;
76355;SDS011;65184;50.952;4.366;2022-12-10T05:27:15;58.00;;;17.05;;
76355;SDS011;65184;50.952;4.366;2022-12-10T05:32:11;48.17;;;14.57;;
76355;SDS011;65184;50.952;4.366;2022-12-10T05:34:36;46.55;;;15.65;;
76355;SDS011;65184;50.952;4.366;2022-12-10T05:37:13;57.97;;;15.15;;
76355;SDS011;65184;50.952;4.366;2022-12-10T05:39:38;53.08;;;14.57;;
76355;SDS011;65184;50.952;4.366;2022-12-10T05:42:04;67.57;;;16.63;;
76355;SDS011;65184;50.952;4.366;2022-12-10T05:44:37;66.85;;;15.77;;
76355;SDS011;65184;50.952;4.366;2022-12-10T05:49:40;57.70;;;17.88;;
76355;SDS011;65184;50.952;4.366;2022-12-10T05:52:21;71.63;;;18.13;;
76355;SDS011;65184;50.952;4.366;2022-12-10T05:54:52;56.45;;;18.52;;
76355;SDS011;65184;50.952;4.366;2022-12-10T05:57:27;60.45;;;18.05;;
76355;SDS011;65184;50.952;4.366;2022-12-10T06:00:11;55.72;;;16.88;;
76355;SDS011;65184;50.952;4.366;2022-12-10T06:05:14;52.25;;;15.05;;
76355;SDS011;65184;50.952;4.366;2022-12-10T06:07:43;48.35;;;15.52;;
76355;SDS011;65184;50.952;4.366;2022-12-10T06:10:16;59.17;;;16.05;;
76355;SDS011;65184;50.952;4.366;2022-12-10T06:12:44;54.88;;;14.57;;
76355;SDS011;65184;50.952;4.366;2022-12-10T06:15:22;49.65;;;14.57;;
76355;SDS011;65184;50.952;4.366;2022-12-10T06:20:43;55.65;;;15.57;;
76355;SDS011;65184;50.952;4.366;2022-12-10T06:23:11;44.38;;;14.18;;
76355;SDS011;65184;50.952;4.366;2022-12-10T06:25:39;48.10;;;14.15;;
76355;SDS011;65184;50.952;4.366;2022-12-10T06:28:05;56.95;;;14.48;;
76355;SDS011;65184;50.952;4.366;2022-12-10T06:30:32;45.90;;;11.50;;
76355;SDS011;65184;50.952;4.366;2022-12-10T06:32:59;43.45;;;14.52;;
76355;SDS011;65184;50.952;4.366;2022-12-10T06:35:33;49.78;;;14.05;;
76355;SDS011;65184;50.952;4.366;2022-12-10T06:38:11;46.40;;;13.93;;
76355;SDS011;65184;50.952;4.366;2022-12-10T06:40:38;46.20;;;13.85;;
76355;SDS011;65184;50.952;4.366;2022-12-10T06:43:05;42.50;;;15.88;;
76355;SDS011;65184;50.952;4.366;2022-12-10T06:45:32;51.45;;;14.75;;
76355;SDS011;65184;50.952;4.366;2022-12-10T06:48:01;41.50;;;13.93;;
76355;SDS011;65184;50.952;4.366;2022-12-10T06:50:26;47.08;;;14.57;;
76355;SDS011;65184;50.952;4.366;2022-12-10T06:53:01;50.65;;;16.35;;
76355;SDS011;65184;50.952;4.366;2022-12-10T06:55:27;52.90;;;16.33;;
76355;SDS011;65184;50.952;4.366;2022-12-10T07:00:27;59.35;;;17.98;;
76355;SDS011;65184;50.952;4.366;2022-12-10T07:02:55;59.45;;;14.93;;
76355;SDS011;65184;50.952;4.366;2022-12-10T07:05:24;50.25;;;15.65;;
76355;SDS011;65184;50.952;4.366;2022-12-10T07:07:51;49.40;;;12.95;;
76355;SDS011;65184;50.952;4.366;2022-12-10T07:10:24;63.38;;;15.45;;
76355;SDS011;65184;50.952;4.366;2022-12-10T07:12:52;46.80;;;14.77;;
76355;SDS011;65184;50.952;4.366;2022-12-10T07:15:20;40.05;;;12.00;;
76355;SDS011;65184;50.952;4.366;2022-12-10T07:17:54;43.22;;;13.90;;
76355;SDS011;65184;50.952;4.366;2022-12-10T07:20:21;63.30;;;15.30;;
76355;SDS011;65184;50.952;4.366;2022-12-10T07:22:50;48.15;;;14.82;;
76355;SDS011;65184;50.952;4.366;2022-12-10T07:25:33;51.05;;;12.50;;
76355;SDS011;65184;50.952;4.366;2022-12-10T07:27:58;55.03;;;14.05;;
76355;SDS011;65184;50.952;4.366;2022-12-10T07:30:26;41.80;;;12.45;;
76355;SDS011;65184;50.952;4.366;2022-12-10T07:32:54;53.78;;;15.70;;
76355;SDS011;65184;50.952;4.366;2022-12-10T07:35:22;56.65;;;16.25;;
76355;SDS011;65184;50.952;4.366;2022-12-10T07:40:17;48.40;;;15.10;;
76355;SDS011;65184;50.952;4.366;2022-12-10T07:42:43;47.63;;;15.02;;
76355;SDS011;65184;50.952;4.366;2022-12-10T07:45:08;47.00;;;13.48;;
76355;SDS011;65184;50.952;4.366;2022-12-10T07:47:39;53.70;;;14.82;;
76355;SDS011;65184;50.952;4.366;2022-12-10T07:50:06;55.22;;;17.75;;
76355;SDS011;65184;50.952;4.366;2022-12-10T07:52:36;53.70;;;18.42;;
76355;SDS011;65184;50.952;4.366;2022-12-10T07:55:02;43.65;;;12.70;;
76355;SDS011;65184;50.952;4.366;2022-12-10T07:57:31;54.67;;;15.30;;
76355;SDS011;65184;50.952;4.366;2022-12-10T07:59:57;58.25;;;16.27;;
76355;SDS011;65184;50.952;4.366;2022-12-10T08:02:25;57.58;;;15.63;;
76355;SDS011;65184;50.952;4.366;2022-12-10T08:04:50;56.05;;;16.65;;
76355;SDS011;65184;50.952;4.366;2022-12-10T08:07:16;57.92;;;18.40;;
76355;SDS011;65184;50.952;4.366;2022-12-10T08:09:41;49.67;;;15.98;;
76355;SDS011;65184;50.952;4.366;2022-12-10T08:12:11;50.60;;;13.35;;
76355;SDS011;65184;50.952;4.366;2022-12-10T08:14:50;61.13;;;18.55;;
76355;SDS011;65184;50.952;4.366;2022-12-10T08:17:22;27.80;;;10.35;;
76355;SDS011;65184;50.952;4.366;2022-12-10T08:20:05;47.92;;;16.55;;
76355;SDS011;65184;50.952;4.366;2022-12-10T08:22:30;62.92;;;18.63;;
76355;SDS011;65184;50.952;4.366;2022-12-10T08:27:29;44.83;;;13.60;;
76355;SDS011;65184;50.952;4.366;2022-12-10T08:29:55;57.33;;;17.55;;
76355;SDS011;65184;50.952;4.366;2022-12-10T08:34:51;32.28;;;10.93;;
76355;SDS011;65184;50.952;4.366;2022-12-10T08:37:19;56.95;;;15.23;;
76355;SDS011;65184;50.952;4.366;2022-12-10T08:39:54;53.97;;;16.23;;
76355;SDS011;65184;50.952;4.366;2022-12-10T08:42:20;58.30;;;17.23;;
76355;SDS011;65184;50.952;4.366;2022-12-10T08:44:48;44.15;;;13.55;;
76355;SDS011;65184;50.952;4.366;2022-12-10T08:47:15;59.60;;;16.38;;
76355;SDS011;65184;50.952;4.366;2022-12-10T08:52:09;56.28;;;18.15;;
76355;SDS011;65184;50.952;4.366;2022-12-10T08:57:06;55.17;;;18.80;;
76355;SDS011;65184;50.952;4.366;2022-12-10T08:59:32;50.50;;;16.75;;
76355;SDS011;65184;50.952;4.366;2022-12-10T09:01:58;43.50;;;13.98;;
76355;SDS011;65184;50.952;4.366;2022-12-10T09:04:23;44.45;;;16.05;;
76355;SDS011;65184;50.952;4.366;2022-12-10T09:06:52;47.17;;;15.27;;
76355;SDS011;65184;50.952;4.366;2022-12-10T09:09:18;45.40;;;15.40;;
76355;SDS011;65184;50.952;4.366;2022-12-10T09:11:44;50.20;;;13.35;;
76355;SDS011;65184;50.952;4.366;2022-12-10T09:14:12;51.60;;;15.80;;
76355;SDS011;65184;50.952;4.366;2022-12-10T09:16:38;39.08;;;11.95;;
76355;SDS011;65184;50.952;4.366;2022-12-10T09:19:04;37.90;;;11.30;;
76355;SDS011;65184;50.952;4.366;2022-12-10T09:23:59;40.95;;;11.10;;
76355;SDS011;65184;50.952;4.366;2022-12-10T09:26:24;42.30;;;11.25;;
76355;SDS011;65184;50.952;4.366;2022-12-10T09:28:52;48.38;;;15.90;;
76355;SDS011;65184;50.952;4.366;2022-12-10T09:31:18;44.28;;;12.98;;
76355;SDS011;65184;50.952;4.366;2022-12-10T09:33:45;54.92;;;14.80;;
76355;SDS011;65184;50.952;4.366;2022-12-10T09:36:13;43.95;;;17.63;;
76355;SDS011;65184;50.952;4.366;2022-12-10T09:38:43;50.63;;;16.65;;
76355;SDS011;65184;50.952;4.366;2022-12-10T09:41:54;44.63;;;13.90;;
76355;SDS011;65184;50.952;4.366;2022-12-10T09:52:19;35.15;;;13.30;;
76355;SDS011;65184;50.952;4.366;2022-12-10T09:55:00;41.95;;;15.13;;
76355;SDS011;65184;50.952;4.366;2022-12-10T10:00:09;42.10;;;14.10;;
76355;SDS011;65184;50.952;4.366;2022-12-10T10:02:48;34.85;;;10.65;;
76355;SDS011;65184;50.952;4.366;2022-12-10T10:05:22;42.05;;;13.65;;
76355;SDS011;65184;50.952;4.366;2022-12-10T10:08:03;44.92;;;13.65;;
76355;SDS011;65184;50.952;4.366;2022-12-10T10:10:32;37.25;;;14.73;;
76355;SDS011;65184;50.952;4.366;2022-12-10T10:15:34;42.63;;;13.85;;
76355;SDS011;65184;50.952;4.366;2022-12-10T10:20:58;31.60;;;11.52;;
76355;SDS011;65184;50.952;4.366;2022-12-10T10:23:24;54.55;;;15.50;;
76355;SDS011;65184;50.952;4.366;2022-12-10T10:25:50;40.08;;;13.77;;
76355;SDS011;65184;50.952;4.366;2022-12-10T10:28:19;49.42;;;13.50;;
76355;SDS011;65184;50.952;4.366;2022-12-10T10:30:46;48.40;;;16.80;;
76355;SDS011;65184;50.952;4.366;2022-12-10T10:33:13;46.67;;;14.65;;
76355;SDS011;65184;50.952;4.366;2022-12-10T10:35:53;63.55;;;20.25;;
76355;SDS011;65184;50.952;4.366;2022-12-10T10:38:24;55.05;;;15.00;;
76355;SDS011;65184;50.952;4.366;2022-12-10T10:40:55;50.15;;;15.30;;
76355;SDS011;65184;50.952;4.366;2022-12-10T10:43:23;65.13;;;23.80;;
76355;SDS011;65184;50.952;4.366;2022-12-10T10:48:46;41.83;;;13.77;;
76355;SDS011;65184;50.952;4.366;2022-12-10T10:53:47;48.28;;;14.25;;
76355;SDS011;65184;50.952;4.366;2022-12-10T11:01:14;39.53;;;12.25;;
76355;SDS011;65184;50.952;4.366;2022-12-10T11:06:11;38.08;;;13.38;;
76355;SDS011;65184;50.952;4.366;2022-12-10T11:08:37;43.08;;;13.20;;
76355;SDS011;65184;50.952;4.366;2022-12-10T11:11:50;43.75;;;15.98;;
76355;SDS011;65184;50.952;4.366;2022-12-10T11:14:14;44.85;;;14.57;;
76355;SDS011;65184;50.952;4.366;2022-12-10T11:16:41;44.53;;;14.85;;
76355;SDS011;65184;50.952;4.366;2022-12-10T11:21:41;44.15;;;13.75;;
76355;SDS011;65184;50.952;4.366;2022-12-10T11:24:11;50.00;;;14.80;;
76355;SDS011;65184;50.952;4.366;2022-12-10T11:26:42;34.38;;;10.30;;
76355;SDS011;65184;50.952;4.366;2022-12-10T11:35:19;42.15;;;15.43;;
76355;SDS011;65184;50.952;4.366;2022-12-10T11:37:48;39.95;;;12.13;;
76355;SDS011;65184;50.952;4.366;2022-12-10T11:40:34;23.20;;;9.23;;
76355;SDS011;65184;50.952;4.366;2022-12-10T11:43:26;36.22;;;12.23;;
76355;SDS011;65184;50.952;4.366;2022-12-10T11:56:52;30.77;;;12.15;;
76355;SDS011;65184;50.952;4.366;2022-12-10T11:59:34;35.75;;;13.85;;
76355;SDS011;65184;50.952;4.366;2022-12-10T12:04:58;36.38;;;9.75;;
76355;SDS011;65184;50.952;4.366;2022-12-10T12:10:33;34.95;;;12.65;;
76355;SDS011;65184;50.952;4.366;2022-12-10T12:13:04;29.25;;;10.73;;
76355;SDS011;65184;50.952;4.366;2022-12-10T12:15:34;37.83;;;11.35;;
76355;SDS011;65184;50.952;4.366;2022-12-10T12:18:26;39.78;;;11.93;;
76355;SDS011;65184;50.952;4.366;2022-12-10T12:21:01;34.17;;;13.20;;
76355;SDS011;65184;50.952;4.366;2022-12-10T12:28:55;38.83;;;12.07;;
76355;SDS011;65184;50.952;4.366;2022-12-10T12:31:29;36.70;;;11.48;;
76355;SDS011;65184;50.952;4.366;2022-12-10T12:34:06;35.80;;;12.20;;
76355;SDS011;65184;50.952;4.366;2022-12-10T12:36:40;38.08;;;12.85;;
76355;SDS011;65184;50.952;4.366;2022-12-10T12:39:11;35.63;;;13.68;;
76355;SDS011;65184;50.952;4.366;2022-12-10T12:45:02;52.65;;;18.95;;
76355;SDS011;65184;50.952;4.366;2022-12-10T12:50:37;45.30;;;14.88;;
76355;SDS011;65184;50.952;4.366;2022-12-10T12:53:09;44.25;;;14.70;;
76355;SDS011;65184;50.952;4.366;2022-12-10T13:01:51;31.65;;;11.68;;
76355;SDS011;65184;50.952;4.366;2022-12-10T13:13:38;34.88;;;12.85;;
76355;SDS011;65184;50.952;4.366;2022-12-10T13:24:59;31.23;;;11.13;;
76355;SDS011;65184;50.952;4.366;2022-12-10T13:27:33;32.33;;;10.70;;
76355;SDS011;65184;50.952;4.366;2022-12-10T13:33:23;38.58;;;13.15;;
76355;SDS011;65184;50.952;4.366;2022-12-10T13:35:55;44.50;;;16.65;;
76355;SDS011;65184;50.952;4.366;2022-12-10T13:38:24;32.40;;;12.95;;
76355;SDS011;65184;50.952;4.366;2022-12-10T13:41:01;36.92;;;11.50;;
76355;SDS011;65184;50.952;4.366;2022-12-10T13:43:59;30.13;;;11.40;;
76355;SDS011;65184;50.952;4.366;2022-12-10T13:46:51;40.03;;;14.55;;
76355;SDS011;65184;50.952;4.366;2022-12-10T13:49:44;32.55;;;10.98;;
76355;SDS011;65184;50.952;4.366;2022-12-10T13:52:17;37.40;;;12.48;;
76355;SDS011;65184;50.952;4.366;2022-12-10T13:54:58;32.80;;;12.15;;
76355;SDS011;65184;50.952;4.366;2022-12-10T14:02:52;22.00;;;9.52;;
76355;SDS011;65184;50.952;4.366;2022-12-10T14:08:55;39.83;;;11.82;;
76355;SDS011;65184;50.952;4.366;2022-12-10T14:11:28;40.13;;;12.88;;
76355;SDS011;65184;50.952;4.366;2022-12-10T14:13:58;41.13;;;12.35;;
76355;SDS011;65184;50.952;4.366;2022-12-10T14:16:31;32.65;;;11.20;;
76355;SDS011;65184;50.952;4.366;2022-12-10T14:18:59;24.20;;;10.40;;
76355;SDS011;65184;50.952;4.366;2022-12-10T14:21:27;34.25;;;10.98;;
76355;SDS011;65184;50.952;4.366;2022-12-10T14:23:57;58.05;;;20.77;;
76355;SDS011;65184;50.952;4.366;2022-12-10T14:29:12;32.45;;;10.95;;
76355;SDS011;65184;50.952;4.366;2022-12-10T14:31:46;38.67;;;12.05;;
76355;SDS011;65184;50.952;4.366;2022-12-10T14:36:49;34.83;;;11.88;;
76355;SDS011;65184;50.952;4.366;2022-12-10T14:39:16;39.83;;;12.77;;
76355;SDS011;65184;50.952;4.366;2022-12-10T14:41:50;28.80;;;10.25;;
76355;SDS011;65184;50.952;4.366;2022-12-10T14:44:36;33.55;;;12.00;;
76355;SDS011;65184;50.952;4.366;2022-12-10T14:47:16;32.10;;;10.85;;
76355;SDS011;65184;50.952;4.366;2022-12-10T14:49:49;35.35;;;12.73;;
76355;SDS011;65184;50.952;4.366;2022-12-10T14:52:19;34.17;;;10.93;;
76355;SDS011;65184;50.952;4.366;2022-12-10T14:54:46;27.80;;;11.40;;
76355;SDS011;65184;50.952;4.366;2022-12-10T14:57:21;44.17;;;17.00;;
76355;SDS011;65184;50.952;4.366;2022-12-10T14:59:55;39.67;;;13.98;;
76355;SDS011;65184;50.952;4.366;2022-12-10T15:02:37;34.47;;;12.73;;
76355;SDS011;65184;50.952;4.366;2022-12-10T15:05:52;33.38;;;11.02;;
76355;SDS011;65184;50.952;4.366;2022-12-10T15:10:43;42.03;;;14.40;;
76355;SDS011;65184;50.952;4.366;2022-12-10T15:13:21;38.58;;;12.20;;
76355;SDS011;65184;50.952;4.366;2022-12-10T15:15:49;39.28;;;13.93;;
76355;SDS011;65184;50.952;4.366;2022-12-10T15:18:20;46.90;;;13.40;;
76355;SDS011;65184;50.952;4.366;2022-12-10T15:23:43;33.78;;;12.48;;
76355;SDS011;65184;50.952;4.366;2022-12-10T15:26:14;37.08;;;12.45;;
76355;SDS011;65184;50.952;4.366;2022-12-10T15:28:46;46.33;;;13.98;;
76355;SDS011;65184;50.952;4.366;2022-12-10T15:33:51;47.80;;;14.38;;
76355;SDS011;65184;50.952;4.366;2022-12-10T15:39:09;60.00;;;19.95;;
76355;SDS011;65184;50.952;4.366;2022-12-10T15:41:50;48.03;;;16.50;;
76355;SDS011;65184;50.952;4.366;2022-12-10T15:49:28;40.35;;;16.25;;
76355;SDS011;65184;50.952;4.366;2022-12-10T15:51:57;35.92;;;14.13;;
76355;SDS011;65184;50.952;4.366;2022-12-10T15:56:50;35.58;;;12.88;;
76355;SDS011;65184;50.952;4.366;2022-12-10T15:59:16;35.60;;;12.95;;
76355;SDS011;65184;50.952;4.366;2022-12-10T16:01:43;40.00;;;13.57;;
76355;SDS011;65184;50.952;4.366;2022-12-10T16:04:08;36.15;;;12.18;;
76355;SDS011;65184;50.952;4.366;2022-12-10T16:09:00;34.42;;;12.15;;
76355;SDS011;65184;50.952;4.366;2022-12-10T16:11:27;38.33;;;13.40;;
76355;SDS011;65184;50.952;4.366;2022-12-10T16:13:53;42.85;;;14.95;;
76355;SDS011;65184;50.952;4.366;2022-12-10T16:16:23;35.80;;;14.90;;
76355;SDS011;65184;50.952;4.366;2022-12-10T16:18:52;34.83;;;13.02;;
76355;SDS011;65184;50.952;4.366;2022-12-10T16:21:34;38.72;;;12.50;;
76355;SDS011;65184;50.952;4.366;2022-12-10T16:23:59;36.33;;;12.52;;
76355;SDS011;65184;50.952;4.366;2022-12-10T16:31:27;38.72;;;12.85;;
76355;SDS011;65184;50.952;4.366;2022-12-10T16:33:57;34.10;;;14.38;;
76355;SDS011;65184;50.952;4.366;2022-12-10T16:36:24;51.13;;;20.05;;
76355;SDS011;65184;50.952;4.366;2022-12-10T16:38:51;39.13;;;16.10;;
76355;SDS011;65184;50.952;4.366;2022-12-10T16:41:23;40.45;;;13.25;;
76355;SDS011;65184;50.952;4.366;2022-12-10T16:43:50;35.45;;;14.43;;
76355;SDS011;65184;50.952;4.366;2022-12-10T16:46:17;44.92;;;15.38;;
76355;SDS011;65184;50.952;4.366;2022-12-10T16:48:43;47.40;;;14.15;;
76355;SDS011;65184;50.952;4.366;2022-12-10T16:51:32;37.65;;;13.88;;
76355;SDS011;65184;50.952;4.366;2022-12-10T16:54:49;47.80;;;14.25;;
76355;SDS011;65184;50.952;4.366;2022-12-10T16:57:48;34.30;;;12.30;;
76355;SDS011;65184;50.952;4.366;2022-12-10T17:01:03;37.05;;;14.82;;
76355;SDS011;65184;50.952;4.366;2022-12-10T17:03:50;37.90;;;13.55;;
76355;SDS011;65184;50.952;4.366;2022-12-10T17:06:42;31.40;;;12.77;;
76355;SDS011;65184;50.952;4.366;2022-12-10T17:09:26;39.33;;;14.48;;
76355;SDS011;65184;50.952;4.366;2022-12-10T17:14:47;34.60;;;12.65;;
76355;SDS011;65184;50.952;4.366;2022-12-10T17:17:33;32.83;;;13.98;;
76355;SDS011;65184;50.952;4.366;2022-12-10T17:20:05;33.35;;;13.40;;
76355;SDS011;65184;50.952;4.366;2022-12-10T17:22:40;30.73;;;13.00;;
76355;SDS011;65184;50.952;4.366;2022-12-10T17:25:39;40.92;;;14.05;;
76355;SDS011;65184;50.952;4.366;2022-12-10T17:28:12;37.95;;;15.25;;
76355;SDS011;65184;50.952;4.366;2022-12-10T17:51:24;37.55;;;13.35;;
76355;SDS011;65184;50.952;4.366;2022-12-10T18:47:17;32.38;;;13.25;;
76355;SDS011;65184;50.952;4.366;2022-12-10T18:49:49;22.08;;;11.70;;
76355;SDS011;65184;50.952;4.366;2022-12-10T18:52:42;24.63;;;12.18;;
